sensor_id;sensor_type;location;lat;lon;timestamp;temperature;humidity
51982;DHT22;37998;53.416;6.730;2023-07-31T00:00:52;16.60;99.90
51982;DHT22;37998;53.416;6.730;2023-07-31T00:03:18;16.70;99.90
51982;DHT22;37998;53.416;6.730;2023-07-31T00:05:43;16.70;99.90
51982;DHT22;37998;53.416;6.730;2023-07-31T00:08:10;16.60;99.90
51982;DHT22;37998;53.416;6.730;2023-07-31T00:10:36;16.70;99.90
51982;DHT22;37998;53.416;6.730;2023-07-31T00:13:02;16.70;99.90
51982;DHT22;37998;53.416;6.730;2023-07-31T00:15:27;16.60;99.90
51982;DHT22;37998;53.416;6.730;2023-07-31T00:17:53;16.60;99.90
51982;DHT22;37998;53.416;6.730;2023-07-31T00:20:20;16.60;99.90
51982;DHT22;37998;53.416;6.730;2023-07-31T00:22:45;16.60;99.90
51982;DHT22;37998;53.416;6.730;2023-07-31T00:25:24;16.60;99.90
51982;DHT22;37998;53.416;6.730;2023-07-31T00:27:50;16.60;99.90
51982;DHT22;37998;53.416;6.730;2023-07-31T00:30:16;16.60;99.90
51982;DHT22;37998;53.416;6.730;2023-07-31T00:32:44;16.60;99.90
51982;DHT22;37998;53.416;6.730;2023-07-31T00:35:10;16.60;99.90
51982;DHT22;37998;53.416;6.730;2023-07-31T00:37:36;16.60;99.90
51982;DHT22;37998;53.416;6.730;2023-07-31T00:40:02;16.60;99.90
51982;DHT22;37998;53.416;6.730;2023-07-31T00:42:29;16.60;99.90
51982;DHT22;37998;53.416;6.730;2023-07-31T00:44:55;16.60;99.90
51982;DHT22;37998;53.416;6.730;2023-07-31T00:47:21;16.60;99.90
51982;DHT22;37998;53.416;6.730;2023-07-31T00:49:48;16.60;99.90
51982;DHT22;37998;53.416;6.730;2023-07-31T00:52:14;16.60;99.90
51982;DHT22;37998;53.416;6.730;2023-07-31T00:54:40;16.60;99.90
51982;DHT22;37998;53.416;6.730;2023-07-31T00:57:06;16.60;99.90
51982;DHT22;37998;53.416;6.730;2023-07-31T00:59:34;16.60;99.90
51982;DHT22;37998;53.416;6.730;2023-07-31T01:02:00;16.60;99.90
51982;DHT22;37998;53.416;6.730;2023-07-31T01:04:26;16.60;99.90
51982;DHT22;37998;53.416;6.730;2023-07-31T01:07:20;16.60;99.90
51982;DHT22;37998;53.416;6.730;2023-07-31T01:10:40;16.60;99.90
51982;DHT22;37998;53.416;6.730;2023-07-31T01:12:45;16.60;99.90
51982;DHT22;37998;53.416;6.730;2023-07-31T01:15:12;16.60;99.90
51982;DHT22;37998;53.416;6.730;2023-07-31T01:17:43;16.60;99.90
51982;DHT22;37998;53.416;6.730;2023-07-31T01:20:21;16.60;99.90
51982;DHT22;37998;53.416;6.730;2023-07-31T01:26:13;16.60;99.90
51982;DHT22;37998;53.416;6.730;2023-07-31T01:29:07;16.60;99.90
51982;DHT22;37998;53.416;6.730;2023-07-31T01:31:36;16.60;99.90
51982;DHT22;37998;53.416;6.730;2023-07-31T01:34:04;16.50;99.90
51982;DHT22;37998;53.416;6.730;2023-07-31T01:36:33;16.50;99.90
51982;DHT22;37998;53.416;6.730;2023-07-31T01:39:00;16.50;99.90
51982;DHT22;37998;53.416;6.730;2023-07-31T01:41:26;16.50;99.90
51982;DHT22;37998;53.416;6.730;2023-07-31T01:43:52;16.50;99.90
51982;DHT22;37998;53.416;6.730;2023-07-31T01:46:18;16.50;99.90
51982;DHT22;37998;53.416;6.730;2023-07-31T01:48:44;16.40;99.90
51982;DHT22;37998;53.416;6.730;2023-07-31T01:51:10;16.40;99.90
51982;DHT22;37998;53.416;6.730;2023-07-31T01:53:36;16.40;99.90
51982;DHT22;37998;53.416;6.730;2023-07-31T01:56:02;16.30;99.90
51982;DHT22;37998;53.416;6.730;2023-07-31T01:58:30;16.30;99.90
51982;DHT22;37998;53.416;6.730;2023-07-31T02:00:56;16.30;99.90
51982;DHT22;37998;53.416;6.730;2023-07-31T02:03:22;16.30;99.90
51982;DHT22;37998;53.416;6.730;2023-07-31T02:05:49;16.30;99.90
51982;DHT22;37998;53.416;6.730;2023-07-31T02:08:15;16.20;99.90
51982;DHT22;37998;53.416;6.730;2023-07-31T02:10:42;16.20;99.90
51982;DHT22;37998;53.416;6.730;2023-07-31T02:13:08;16.20;99.90
51982;DHT22;37998;53.416;6.730;2023-07-31T02:15:34;16.10;99.90
51982;DHT22;37998;53.416;6.730;2023-07-31T02:18:00;16.10;99.90
51982;DHT22;37998;53.416;6.730;2023-07-31T02:20:26;16.00;99.90
51982;DHT22;37998;53.416;6.730;2023-07-31T02:22:52;16.10;99.90
51982;DHT22;37998;53.416;6.730;2023-07-31T02:25:19;16.10;99.90
51982;DHT22;37998;53.416;6.730;2023-07-31T02:27:45;16.20;99.90
51982;DHT22;37998;53.416;6.730;2023-07-31T02:30:11;16.10;99.90
51982;DHT22;37998;53.416;6.730;2023-07-31T02:32:37;16.10;99.90
51982;DHT22;37998;53.416;6.730;2023-07-31T02:35:03;16.10;99.90
51982;DHT22;37998;53.416;6.730;2023-07-31T02:37:29;16.10;99.90
51982;DHT22;37998;53.416;6.730;2023-07-31T02:39:55;16.00;99.90
51982;DHT22;37998;53.416;6.730;2023-07-31T02:42:21;16.10;99.90
51982;DHT22;37998;53.416;6.730;2023-07-31T02:44:47;16.60;99.90
51982;DHT22;37998;53.416;6.730;2023-07-31T02:47:13;16.10;99.90
51982;DHT22;37998;53.416;6.730;2023-07-31T02:49:39;16.10;99.90
51982;DHT22;37998;53.416;6.730;2023-07-31T02:52:05;16.10;99.90
51982;DHT22;37998;53.416;6.730;2023-07-31T02:54:31;16.00;99.90
51982;DHT22;37998;53.416;6.730;2023-07-31T02:56:57;16.70;99.90
51982;DHT22;37998;53.416;6.730;2023-07-31T02:59:23;16.00;99.90
51982;DHT22;37998;53.416;6.730;2023-07-31T03:01:49;16.00;99.90
51982;DHT22;37998;53.416;6.730;2023-07-31T03:04:15;16.00;99.90
51982;DHT22;37998;53.416;6.730;2023-07-31T03:06:41;16.00;99.90
51982;DHT22;37998;53.416;6.730;2023-07-31T03:09:07;16.00;99.90
51982;DHT22;37998;53.416;6.730;2023-07-31T03:11:33;16.00;99.90
51982;DHT22;37998;53.416;6.730;2023-07-31T03:13:59;15.90;99.90
51982;DHT22;37998;53.416;6.730;2023-07-31T03:16:25;16.00;99.90
51982;DHT22;37998;53.416;6.730;2023-07-31T03:18:51;16.00;99.90
51982;DHT22;37998;53.416;6.730;2023-07-31T03:21:16;15.90;99.90
51982;DHT22;37998;53.416;6.730;2023-07-31T03:23:42;16.00;99.90
51982;DHT22;37998;53.416;6.730;2023-07-31T03:26:09;15.90;99.90
51982;DHT22;37998;53.416;6.730;2023-07-31T03:28:35;16.00;99.90
51982;DHT22;37998;53.416;6.730;2023-07-31T03:31:02;15.90;99.90
51982;DHT22;37998;53.416;6.730;2023-07-31T03:33:29;15.90;99.90
51982;DHT22;37998;53.416;6.730;2023-07-31T03:35:56;15.90;99.90
51982;DHT22;37998;53.416;6.730;2023-07-31T03:38:21;15.90;99.90
51982;DHT22;37998;53.416;6.730;2023-07-31T03:40:48;15.90;99.90
51982;DHT22;37998;53.416;6.730;2023-07-31T03:43:15;15.90;99.90
51982;DHT22;37998;53.416;6.730;2023-07-31T03:45:42;16.00;99.90
51982;DHT22;37998;53.416;6.730;2023-07-31T03:48:08;16.00;99.90
51982;DHT22;37998;53.416;6.730;2023-07-31T03:50:34;16.00;99.90
51982;DHT22;37998;53.416;6.730;2023-07-31T03:53:00;16.00;99.90
51982;DHT22;37998;53.416;6.730;2023-07-31T03:55:26;16.00;99.90
51982;DHT22;37998;53.416;6.730;2023-07-31T03:57:52;15.90;99.90
51982;DHT22;37998;53.416;6.730;2023-07-31T04:00:18;15.90;99.90
51982;DHT22;37998;53.416;6.730;2023-07-31T04:02:44;15.90;99.90
51982;DHT22;37998;53.416;6.730;2023-07-31T04:05:10;16.00;99.90
51982;DHT22;37998;53.416;6.730;2023-07-31T04:07:36;15.90;99.90
51982;DHT22;37998;53.416;6.730;2023-07-31T04:10:03;15.90;99.90
51982;DHT22;37998;53.416;6.730;2023-07-31T04:12:29;15.90;99.90
51982;DHT22;37998;53.416;6.730;2023-07-31T04:14:55;15.90;99.90
51982;DHT22;37998;53.416;6.730;2023-07-31T04:17:21;15.90;99.90
51982;DHT22;37998;53.416;6.730;2023-07-31T04:19:47;15.90;99.90
51982;DHT22;37998;53.416;6.730;2023-07-31T04:22:13;15.80;99.90
51982;DHT22;37998;53.416;6.730;2023-07-31T04:24:39;15.90;99.90
51982;DHT22;37998;53.416;6.730;2023-07-31T04:27:05;15.90;99.90
51982;DHT22;37998;53.416;6.730;2023-07-31T04:29:30;15.90;99.90
51982;DHT22;37998;53.416;6.730;2023-07-31T04:32:00;15.90;99.90
51982;DHT22;37998;53.416;6.730;2023-07-31T04:34:26;15.90;99.90
51982;DHT22;37998;53.416;6.730;2023-07-31T04:36:52;15.90;99.90
51982;DHT22;37998;53.416;6.730;2023-07-31T04:39:17;15.90;99.90
51982;DHT22;37998;53.416;6.730;2023-07-31T04:41:43;15.90;99.90
51982;DHT22;37998;53.416;6.730;2023-07-31T04:44:12;15.90;99.90
51982;DHT22;37998;53.416;6.730;2023-07-31T04:46:38;15.80;99.90
51982;DHT22;37998;53.416;6.730;2023-07-31T04:49:04;15.80;99.90
51982;DHT22;37998;53.416;6.730;2023-07-31T04:51:30;15.80;99.90
51982;DHT22;37998;53.416;6.730;2023-07-31T04:53:56;15.80;99.90
51982;DHT22;37998;53.416;6.730;2023-07-31T04:56:22;15.80;99.90
51982;DHT22;37998;53.416;6.730;2023-07-31T04:58:48;15.80;99.90
51982;DHT22;37998;53.416;6.730;2023-07-31T05:01:14;15.70;99.90
51982;DHT22;37998;53.416;6.730;2023-07-31T05:03:40;15.70;99.90
51982;DHT22;37998;53.416;6.730;2023-07-31T05:06:08;15.70;99.90
51982;DHT22;37998;53.416;6.730;2023-07-31T05:08:34;15.70;99.90
51982;DHT22;37998;53.416;6.730;2023-07-31T05:11:00;15.70;99.90
51982;DHT22;37998;53.416;6.730;2023-07-31T05:13:26;15.80;99.90
51982;DHT22;37998;53.416;6.730;2023-07-31T05:15:52;15.80;99.90
51982;DHT22;37998;53.416;6.730;2023-07-31T05:18:18;15.80;99.90
51982;DHT22;37998;53.416;6.730;2023-07-31T05:20:44;15.90;99.90
51982;DHT22;37998;53.416;6.730;2023-07-31T05:23:10;15.90;99.90
51982;DHT22;37998;53.416;6.730;2023-07-31T05:25:35;15.80;99.90
51982;DHT22;37998;53.416;6.730;2023-07-31T05:28:01;15.80;99.90
51982;DHT22;37998;53.416;6.730;2023-07-31T05:30:30;15.90;99.90
51982;DHT22;37998;53.416;6.730;2023-07-31T05:32:56;15.90;99.90
51982;DHT22;37998;53.416;6.730;2023-07-31T05:35:22;15.90;99.90
51982;DHT22;37998;53.416;6.730;2023-07-31T05:37:48;15.90;99.90
51982;DHT22;37998;53.416;6.730;2023-07-31T05:40:17;15.90;99.90
51982;DHT22;37998;53.416;6.730;2023-07-31T05:42:43;15.90;99.90
51982;DHT22;37998;53.416;6.730;2023-07-31T05:45:09;16.00;99.90
51982;DHT22;37998;53.416;6.730;2023-07-31T05:47:42;16.00;99.90
51982;DHT22;37998;53.416;6.730;2023-07-31T05:50:08;16.00;99.90
51982;DHT22;37998;53.416;6.730;2023-07-31T05:52:37;16.00;99.90
51982;DHT22;37998;53.416;6.730;2023-07-31T05:55:03;16.00;99.90
51982;DHT22;37998;53.416;6.730;2023-07-31T05:57:29;16.00;99.90
51982;DHT22;37998;53.416;6.730;2023-07-31T05:59:55;16.00;99.90
51982;DHT22;37998;53.416;6.730;2023-07-31T06:02:21;16.10;99.90
51982;DHT22;37998;53.416;6.730;2023-07-31T06:04:46;16.10;99.90
51982;DHT22;37998;53.416;6.730;2023-07-31T06:07:12;16.10;99.90
51982;DHT22;37998;53.416;6.730;2023-07-31T06:09:38;16.10;99.90
51982;DHT22;37998;53.416;6.730;2023-07-31T06:12:05;16.10;99.90
51982;DHT22;37998;53.416;6.730;2023-07-31T06:14:30;16.10;99.90
51982;DHT22;37998;53.416;6.730;2023-07-31T06:16:56;16.10;99.90
51982;DHT22;37998;53.416;6.730;2023-07-31T06:19:22;16.10;99.90
51982;DHT22;37998;53.416;6.730;2023-07-31T06:21:48;16.10;99.90
51982;DHT22;37998;53.416;6.730;2023-07-31T06:24:14;16.20;99.90
51982;DHT22;37998;53.416;6.730;2023-07-31T06:26:44;16.20;99.90
51982;DHT22;37998;53.416;6.730;2023-07-31T06:29:10;16.20;99.90
51982;DHT22;37998;53.416;6.730;2023-07-31T06:31:36;16.20;99.90
51982;DHT22;37998;53.416;6.730;2023-07-31T06:34:02;16.20;99.90
51982;DHT22;37998;53.416;6.730;2023-07-31T06:36:28;16.20;99.90
51982;DHT22;37998;53.416;6.730;2023-07-31T06:38:54;16.20;99.90
51982;DHT22;37998;53.416;6.730;2023-07-31T06:41:20;16.20;99.90
51982;DHT22;37998;53.416;6.730;2023-07-31T06:43:47;16.30;99.90
51982;DHT22;37998;53.416;6.730;2023-07-31T06:46:12;16.30;99.90
51982;DHT22;37998;53.416;6.730;2023-07-31T06:48:39;16.30;99.90
51982;DHT22;37998;53.416;6.730;2023-07-31T06:51:05;16.30;99.90
51982;DHT22;37998;53.416;6.730;2023-07-31T06:53:31;16.40;99.90
51982;DHT22;37998;53.416;6.730;2023-07-31T06:55:57;16.40;99.90
51982;DHT22;37998;53.416;6.730;2023-07-31T06:58:23;16.40;99.90
51982;DHT22;37998;53.416;6.730;2023-07-31T07:00:49;16.40;99.90
51982;DHT22;37998;53.416;6.730;2023-07-31T07:03:19;16.50;99.90
51982;DHT22;37998;53.416;6.730;2023-07-31T07:05:46;16.50;99.90
51982;DHT22;37998;53.416;6.730;2023-07-31T07:08:12;16.50;99.90
51982;DHT22;37998;53.416;6.730;2023-07-31T07:10:41;16.60;99.90
51982;DHT22;37998;53.416;6.730;2023-07-31T07:13:07;16.60;99.90
51982;DHT22;37998;53.416;6.730;2023-07-31T07:15:33;16.70;99.90
51982;DHT22;37998;53.416;6.730;2023-07-31T07:17:59;16.70;99.90
51982;DHT22;37998;53.416;6.730;2023-07-31T07:20:24;16.70;99.90
51982;DHT22;37998;53.416;6.730;2023-07-31T07:22:50;16.70;99.90
51982;DHT22;37998;53.416;6.730;2023-07-31T07:25:16;16.70;99.90
51982;DHT22;37998;53.416;6.730;2023-07-31T07:27:42;16.70;99.90
51982;DHT22;37998;53.416;6.730;2023-07-31T07:30:09;16.80;99.90
51982;DHT22;37998;53.416;6.730;2023-07-31T07:32:35;16.70;99.90
51982;DHT22;37998;53.416;6.730;2023-07-31T07:35:01;16.80;99.90
51982;DHT22;37998;53.416;6.730;2023-07-31T07:37:36;16.80;99.90
51982;DHT22;37998;53.416;6.730;2023-07-31T07:40:02;16.90;99.90
51982;DHT22;37998;53.416;6.730;2023-07-31T07:42:31;16.90;99.90
51982;DHT22;37998;53.416;6.730;2023-07-31T07:44:57;17.00;99.90
51982;DHT22;37998;53.416;6.730;2023-07-31T07:47:23;17.10;99.90
51982;DHT22;37998;53.416;6.730;2023-07-31T07:49:49;17.20;99.90
51982;DHT22;37998;53.416;6.730;2023-07-31T07:52:15;17.20;99.90
51982;DHT22;37998;53.416;6.730;2023-07-31T07:54:41;17.20;99.90
51982;DHT22;37998;53.416;6.730;2023-07-31T07:57:07;17.30;99.90
51982;DHT22;37998;53.416;6.730;2023-07-31T07:59:32;17.20;99.90
51982;DHT22;37998;53.416;6.730;2023-07-31T08:01:58;17.30;99.90
51982;DHT22;37998;53.416;6.730;2023-07-31T08:04:24;17.30;99.90
51982;DHT22;37998;53.416;6.730;2023-07-31T08:06:50;17.30;99.90
51982;DHT22;37998;53.416;6.730;2023-07-31T08:09:16;17.30;99.90
51982;DHT22;37998;53.416;6.730;2023-07-31T08:11:42;17.30;99.90
51982;DHT22;37998;53.416;6.730;2023-07-31T08:14:08;17.30;99.90
51982;DHT22;37998;53.416;6.730;2023-07-31T08:16:34;17.30;99.90
51982;DHT22;37998;53.416;6.730;2023-07-31T08:19:00;17.30;99.90
51982;DHT22;37998;53.416;6.730;2023-07-31T08:21:25;17.20;99.90
51982;DHT22;37998;53.416;6.730;2023-07-31T08:23:51;17.30;99.90
51982;DHT22;37998;53.416;6.730;2023-07-31T08:26:18;17.30;99.90
51982;DHT22;37998;53.416;6.730;2023-07-31T08:28:47;17.30;99.90
51982;DHT22;37998;53.416;6.730;2023-07-31T08:31:16;17.40;99.90
51982;DHT22;37998;53.416;6.730;2023-07-31T08:33:42;17.30;99.90
51982;DHT22;37998;53.416;6.730;2023-07-31T08:36:08;17.50;99.90
51982;DHT22;37998;53.416;6.730;2023-07-31T08:38:34;17.50;99.90
51982;DHT22;37998;53.416;6.730;2023-07-31T08:41:00;17.50;99.90
51982;DHT22;37998;53.416;6.730;2023-07-31T08:43:26;17.50;99.90
51982;DHT22;37998;53.416;6.730;2023-07-31T08:45:53;17.50;99.90
51982;DHT22;37998;53.416;6.730;2023-07-31T08:48:21;17.40;99.90
51982;DHT22;37998;53.416;6.730;2023-07-31T08:50:48;17.40;99.90
51982;DHT22;37998;53.416;6.730;2023-07-31T08:53:14;17.40;99.90
51982;DHT22;37998;53.416;6.730;2023-07-31T08:55:40;17.30;99.90
51982;DHT22;37998;53.416;6.730;2023-07-31T08:58:06;17.30;99.90
51982;DHT22;37998;53.416;6.730;2023-07-31T09:00:33;17.30;99.90
51982;DHT22;37998;53.416;6.730;2023-07-31T09:03:02;17.30;99.90
51982;DHT22;37998;53.416;6.730;2023-07-31T09:05:30;17.40;99.90
51982;DHT22;37998;53.416;6.730;2023-07-31T09:07:57;17.50;99.90
51982;DHT22;37998;53.416;6.730;2023-07-31T09:10:23;17.50;99.90
51982;DHT22;37998;53.416;6.730;2023-07-31T09:12:51;17.60;99.90
51982;DHT22;37998;53.416;6.730;2023-07-31T09:15:18;17.60;99.90
51982;DHT22;37998;53.416;6.730;2023-07-31T09:17:44;17.60;99.90
51982;DHT22;37998;53.416;6.730;2023-07-31T09:20:18;17.60;99.90
51982;DHT22;37998;53.416;6.730;2023-07-31T09:22:48;17.70;99.90
51982;DHT22;37998;53.416;6.730;2023-07-31T09:28:03;17.80;99.90
51982;DHT22;37998;53.416;6.730;2023-07-31T09:30:29;17.80;99.90
51982;DHT22;37998;53.416;6.730;2023-07-31T09:33:05;17.80;99.90
51982;DHT22;37998;53.416;6.730;2023-07-31T09:35:34;17.80;99.90
51982;DHT22;37998;53.416;6.730;2023-07-31T09:38:05;17.90;99.90
51982;DHT22;37998;53.416;6.730;2023-07-31T09:40:46;17.90;99.90
51982;DHT22;37998;53.416;6.730;2023-07-31T09:43:14;18.00;99.90
51982;DHT22;37998;53.416;6.730;2023-07-31T09:45:44;18.10;99.90
51982;DHT22;37998;53.416;6.730;2023-07-31T09:48:12;18.10;99.90
51982;DHT22;37998;53.416;6.730;2023-07-31T09:50:41;18.20;99.90
51982;DHT22;37998;53.416;6.730;2023-07-31T09:53:09;18.30;99.90
51982;DHT22;37998;53.416;6.730;2023-07-31T09:55:37;18.30;99.90
51982;DHT22;37998;53.416;6.730;2023-07-31T09:58:07;18.30;99.90
51982;DHT22;37998;53.416;6.730;2023-07-31T10:00:34;18.40;99.90
51982;DHT22;37998;53.416;6.730;2023-07-31T10:03:02;18.30;99.90
51982;DHT22;37998;53.416;6.730;2023-07-31T10:05:37;18.30;99.90
51982;DHT22;37998;53.416;6.730;2023-07-31T10:08:04;18.30;99.90
51982;DHT22;37998;53.416;6.730;2023-07-31T10:10:32;18.30;99.90
51982;DHT22;37998;53.416;6.730;2023-07-31T10:13:01;18.30;99.90
51982;DHT22;37998;53.416;6.730;2023-07-31T10:15:28;18.30;99.90
51982;DHT22;37998;53.416;6.730;2023-07-31T10:17:54;18.30;99.90
51982;DHT22;37998;53.416;6.730;2023-07-31T10:20:21;18.30;99.90
51982;DHT22;37998;53.416;6.730;2023-07-31T10:22:48;18.40;99.90
51982;DHT22;37998;53.416;6.730;2023-07-31T10:25:15;18.40;99.90
51982;DHT22;37998;53.416;6.730;2023-07-31T10:27:42;18.40;99.90
51982;DHT22;37998;53.416;6.730;2023-07-31T10:30:12;18.30;99.90
51982;DHT22;37998;53.416;6.730;2023-07-31T10:32:41;18.40;99.90
51982;DHT22;37998;53.416;6.730;2023-07-31T10:35:09;18.30;99.90
51982;DHT22;37998;53.416;6.730;2023-07-31T10:37:41;18.30;99.90
51982;DHT22;37998;53.416;6.730;2023-07-31T10:40:18;18.30;99.90
51982;DHT22;37998;53.416;6.730;2023-07-31T10:42:50;18.30;99.90
51982;DHT22;37998;53.416;6.730;2023-07-31T10:48:05;18.40;99.90
51982;DHT22;37998;53.416;6.730;2023-07-31T10:50:32;18.40;99.90
51982;DHT22;37998;53.416;6.730;2023-07-31T10:53:02;18.50;99.90
51982;DHT22;37998;53.416;6.730;2023-07-31T10:55:31;18.60;99.90
51982;DHT22;37998;53.416;6.730;2023-07-31T10:58:13;18.60;99.90
51982;DHT22;37998;53.416;6.730;2023-07-31T11:00:43;18.60;99.90
51982;DHT22;37998;53.416;6.730;2023-07-31T11:03:18;18.70;99.90
51982;DHT22;37998;53.416;6.730;2023-07-31T11:10:43;18.90;99.90
51982;DHT22;37998;53.416;6.730;2023-07-31T11:13:10;19.00;99.90
51982;DHT22;37998;53.416;6.730;2023-07-31T11:15:36;19.00;99.90
51982;DHT22;37998;53.416;6.730;2023-07-31T11:18:02;18.90;99.90
51982;DHT22;37998;53.416;6.730;2023-07-31T11:20:35;18.90;99.90
51982;DHT22;37998;53.416;6.730;2023-07-31T11:23:07;18.90;99.90
51982;DHT22;37998;53.416;6.730;2023-07-31T11:25:34;19.00;99.90
51982;DHT22;37998;53.416;6.730;2023-07-31T11:28:05;19.00;99.90
51982;DHT22;37998;53.416;6.730;2023-07-31T11:30:31;19.10;99.90
51982;DHT22;37998;53.416;6.730;2023-07-31T11:32:57;19.20;99.90
51982;DHT22;37998;53.416;6.730;2023-07-31T11:35:23;19.30;99.90
51982;DHT22;37998;53.416;6.730;2023-07-31T11:37:49;19.40;99.90
51982;DHT22;37998;53.416;6.730;2023-07-31T11:40:15;19.40;99.90
51982;DHT22;37998;53.416;6.730;2023-07-31T11:42:41;19.40;99.90
51982;DHT22;37998;53.416;6.730;2023-07-31T11:45:08;19.50;99.90
51982;DHT22;37998;53.416;6.730;2023-07-31T11:47:38;19.50;99.90
51982;DHT22;37998;53.416;6.730;2023-07-31T11:50:05;19.50;99.90
51982;DHT22;37998;53.416;6.730;2023-07-31T11:52:44;19.50;99.90
51982;DHT22;37998;53.416;6.730;2023-07-31T11:55:11;19.40;99.90
51982;DHT22;37998;53.416;6.730;2023-07-31T11:57:39;19.40;99.90
51982;DHT22;37998;53.416;6.730;2023-07-31T12:00:08;19.30;99.90
51982;DHT22;37998;53.416;6.730;2023-07-31T12:02:35;19.30;99.90
51982;DHT22;37998;53.416;6.730;2023-07-31T12:05:01;19.30;99.90
51982;DHT22;37998;53.416;6.730;2023-07-31T12:07:27;19.20;99.90
51982;DHT22;37998;53.416;6.730;2023-07-31T12:10:08;19.10;99.90
51982;DHT22;37998;53.416;6.730;2023-07-31T12:12:34;18.90;99.90
51982;DHT22;37998;53.416;6.730;2023-07-31T12:15:00;19.30;99.90
51982;DHT22;37998;53.416;6.730;2023-07-31T12:17:26;19.40;99.90
51982;DHT22;37998;53.416;6.730;2023-07-31T12:19:51;19.60;99.90
51982;DHT22;37998;53.416;6.730;2023-07-31T12:22:17;19.60;99.90
51982;DHT22;37998;53.416;6.730;2023-07-31T12:24:44;19.50;99.90
51982;DHT22;37998;53.416;6.730;2023-07-31T12:27:11;19.50;99.90
51982;DHT22;37998;53.416;6.730;2023-07-31T12:29:37;19.40;99.90
51982;DHT22;37998;53.416;6.730;2023-07-31T12:32:03;19.40;99.90
51982;DHT22;37998;53.416;6.730;2023-07-31T12:34:29;19.30;99.90
51982;DHT22;37998;53.416;6.730;2023-07-31T12:36:55;19.40;99.90
51982;DHT22;37998;53.416;6.730;2023-07-31T12:39:21;19.40;99.90
51982;DHT22;37998;53.416;6.730;2023-07-31T12:41:47;19.40;99.90
51982;DHT22;37998;53.416;6.730;2023-07-31T12:44:13;19.40;99.90
51982;DHT22;37998;53.416;6.730;2023-07-31T12:46:39;19.40;99.90
51982;DHT22;37998;53.416;6.730;2023-07-31T12:49:11;19.40;99.90
51982;DHT22;37998;53.416;6.730;2023-07-31T12:51:37;19.30;99.90
51982;DHT22;37998;53.416;6.730;2023-07-31T12:54:03;19.30;99.90
51982;DHT22;37998;53.416;6.730;2023-07-31T12:56:29;19.20;99.90
51982;DHT22;37998;53.416;6.730;2023-07-31T12:58:55;19.30;99.90
51982;DHT22;37998;53.416;6.730;2023-07-31T13:01:21;19.20;99.90
51982;DHT22;37998;53.416;6.730;2023-07-31T13:03:48;19.20;99.90
51982;DHT22;37998;53.416;6.730;2023-07-31T13:06:14;19.30;99.90
51982;DHT22;37998;53.416;6.730;2023-07-31T13:08:40;19.20;99.90
51982;DHT22;37998;53.416;6.730;2023-07-31T13:11:06;19.20;99.90
51982;DHT22;37998;53.416;6.730;2023-07-31T13:13:32;19.30;99.90
51982;DHT22;37998;53.416;6.730;2023-07-31T13:15:58;19.40;99.90
51982;DHT22;37998;53.416;6.730;2023-07-31T13:18:24;19.50;99.90
51982;DHT22;37998;53.416;6.730;2023-07-31T13:20:52;19.60;99.90
51982;DHT22;37998;53.416;6.730;2023-07-31T13:23:18;19.70;99.90
51982;DHT22;37998;53.416;6.730;2023-07-31T13:25:44;19.70;99.90
51982;DHT22;37998;53.416;6.730;2023-07-31T13:28:10;19.70;99.90
51982;DHT22;37998;53.416;6.730;2023-07-31T13:30:36;19.60;99.90
51982;DHT22;37998;53.416;6.730;2023-07-31T13:33:02;19.60;99.90
51982;DHT22;37998;53.416;6.730;2023-07-31T13:35:28;19.70;99.90
51982;DHT22;37998;53.416;6.730;2023-07-31T13:37:54;19.70;99.90
51982;DHT22;37998;53.416;6.730;2023-07-31T13:40:20;19.70;99.90
51982;DHT22;37998;53.416;6.730;2023-07-31T13:42:46;19.80;99.90
51982;DHT22;37998;53.416;6.730;2023-07-31T13:45:13;19.90;99.90
51982;DHT22;37998;53.416;6.730;2023-07-31T13:47:39;19.90;99.90
51982;DHT22;37998;53.416;6.730;2023-07-31T13:50:05;19.90;99.90
51982;DHT22;37998;53.416;6.730;2023-07-31T13:52:31;19.90;99.90
51982;DHT22;37998;53.416;6.730;2023-07-31T13:54:57;19.80;99.90
51982;DHT22;37998;53.416;6.730;2023-07-31T13:57:23;19.80;99.90
51982;DHT22;37998;53.416;6.730;2023-07-31T13:59:52;19.70;99.90
51982;DHT22;37998;53.416;6.730;2023-07-31T14:02:18;19.70;99.90
51982;DHT22;37998;53.416;6.730;2023-07-31T14:04:44;19.80;99.90
51982;DHT22;37998;53.416;6.730;2023-07-31T14:07:10;19.80;99.90
51982;DHT22;37998;53.416;6.730;2023-07-31T14:09:36;19.80;99.90
51982;DHT22;37998;53.416;6.730;2023-07-31T14:12:02;19.80;99.90
51982;DHT22;37998;53.416;6.730;2023-07-31T14:14:28;19.80;99.90
51982;DHT22;37998;53.416;6.730;2023-07-31T14:16:54;19.80;99.90
51982;DHT22;37998;53.416;6.730;2023-07-31T14:19:20;19.90;99.90
51982;DHT22;37998;53.416;6.730;2023-07-31T14:21:46;19.90;99.90
51982;DHT22;37998;53.416;6.730;2023-07-31T14:24:12;20.00;99.90
51982;DHT22;37998;53.416;6.730;2023-07-31T14:26:38;20.00;99.90
51982;DHT22;37998;53.416;6.730;2023-07-31T14:29:04;20.00;99.90
51982;DHT22;37998;53.416;6.730;2023-07-31T14:31:30;20.00;99.90
51982;DHT22;37998;53.416;6.730;2023-07-31T14:33:56;20.00;99.90
51982;DHT22;37998;53.416;6.730;2023-07-31T14:36:22;20.10;99.90
51982;DHT22;37998;53.416;6.730;2023-07-31T14:38:48;20.10;99.90
51982;DHT22;37998;53.416;6.730;2023-07-31T14:41:14;20.10;99.90
51982;DHT22;37998;53.416;6.730;2023-07-31T14:43:40;20.10;99.90
51982;DHT22;37998;53.416;6.730;2023-07-31T14:46:06;20.00;99.90
51982;DHT22;37998;53.416;6.730;2023-07-31T14:48:34;20.10;99.90
51982;DHT22;37998;53.416;6.730;2023-07-31T14:51:00;20.20;99.90
51982;DHT22;37998;53.416;6.730;2023-07-31T14:53:26;20.00;99.90
51982;DHT22;37998;53.416;6.730;2023-07-31T14:55:52;20.10;99.90
51982;DHT22;37998;53.416;6.730;2023-07-31T14:58:21;20.00;99.90
51982;DHT22;37998;53.416;6.730;2023-07-31T15:00:47;20.10;99.90
51982;DHT22;37998;53.416;6.730;2023-07-31T15:03:13;20.10;99.90
51982;DHT22;37998;53.416;6.730;2023-07-31T15:05:39;20.10;99.90
51982;DHT22;37998;53.416;6.730;2023-07-31T15:08:05;20.10;99.90
51982;DHT22;37998;53.416;6.730;2023-07-31T15:10:34;20.10;99.90
51982;DHT22;37998;53.416;6.730;2023-07-31T15:13:00;20.10;99.90
51982;DHT22;37998;53.416;6.730;2023-07-31T15:15:27;20.10;99.90
51982;DHT22;37998;53.416;6.730;2023-07-31T15:17:53;20.10;99.90
51982;DHT22;37998;53.416;6.730;2023-07-31T15:20:19;20.00;99.90
51982;DHT22;37998;53.416;6.730;2023-07-31T15:22:48;20.00;99.90
51982;DHT22;37998;53.416;6.730;2023-07-31T15:25:14;20.00;99.90
51982;DHT22;37998;53.416;6.730;2023-07-31T15:27:40;20.00;99.90
51982;DHT22;37998;53.416;6.730;2023-07-31T15:30:06;20.00;99.90
51982;DHT22;37998;53.416;6.730;2023-07-31T15:32:32;20.00;99.90
51982;DHT22;37998;53.416;6.730;2023-07-31T15:34:58;20.00;99.90
51982;DHT22;37998;53.416;6.730;2023-07-31T15:37:24;20.00;99.90
51982;DHT22;37998;53.416;6.730;2023-07-31T15:39:50;20.00;99.90
51982;DHT22;37998;53.416;6.730;2023-07-31T15:42:17;20.00;99.90